createdAt,value
2018-12-18T00:00:39.095Z,1018.44
2018-12-18T00:01:47.795Z,1018.41
2018-12-18T00:02:56.470Z,1018.42
2018-12-18T00:04:05.136Z,1018.39
2018-12-18T00:05:13.806Z,1018.36
2018-12-18T00:06:22.505Z,1018.37
2018-12-18T00:07:31.431Z,1018.36
2018-12-18T00:08:40.104Z,1018.41
2018-12-18T00:09:48.763Z,1018.38
2018-12-18T00:10:57.441Z,1018.35
2018-12-18T00:12:06.121Z,1018.37
2018-12-18T00:13:14.801Z,1018.32
2018-12-18T00:14:23.467Z,1018.37
2018-12-18T00:15:32.129Z,1018.33
2018-12-18T00:16:40.809Z,1018.34
2018-12-18T00:17:49.725Z,1018.36
2018-12-18T00:18:58.410Z,1018.36
2018-12-18T00:20:07.068Z,1018.33
2018-12-18T00:21:15.745Z,1018.38
2018-12-18T00:22:24.413Z,1018.38
2018-12-18T00:23:33.351Z,1018.34
2018-12-18T00:24:42.265Z,1018.34
2018-12-18T00:25:50.931Z,1018.34
2018-12-18T00:26:59.597Z,1018.37
2018-12-18T00:28:08.269Z,1018.36
2018-12-18T00:29:16.944Z,1018.38
2018-12-18T00:30:25.612Z,1018.38
2018-12-18T00:31:34.277Z,1018.4
2018-12-18T00:32:42.942Z,1018.34
2018-12-18T00:33:51.627Z,1018.37
2018-12-18T00:35:00.293Z,1018.36
2018-12-18T00:36:09.222Z,1018.37
2018-12-18T00:37:17.883Z,1018.35
2018-12-18T00:38:26.557Z,1018.37
2018-12-18T00:39:35.218Z,1018.36
2018-12-18T00:40:43.904Z,1018.38
2018-12-18T00:41:52.568Z,1018.43
2018-12-18T00:43:01.783Z,1018.37
2018-12-18T00:44:10.449Z,1018.39
2018-12-18T00:45:19.118Z,1018.34
2018-12-18T00:46:27.778Z,1018.42
2018-12-18T00:47:36.708Z,1018.44
2018-12-18T00:48:45.378Z,1018.42
2018-12-18T00:49:54.051Z,1018.43
2018-12-18T00:51:02.727Z,1018.46
2018-12-18T00:52:11.384Z,1018.47
2018-12-18T00:53:20.059Z,1018.46
2018-12-18T00:54:28.730Z,1018.45
2018-12-18T00:55:37.411Z,1018.41
2018-12-18T00:56:46.328Z,1018.46
2018-12-18T00:57:54.998Z,1018.44
2018-12-18T00:59:03.665Z,1018.39
2018-12-18T01:00:12.359Z,1018.38
2018-12-18T01:01:21.024Z,1018.43
2018-12-18T01:02:29.699Z,1018.38
2018-12-18T01:03:38.369Z,1018.38
2018-12-18T01:04:52.831Z,1018.38
2018-12-18T01:06:01.500Z,1018.38
2018-12-18T01:07:10.172Z,1018.36
2018-12-18T01:08:19.114Z,1018.37
2018-12-18T01:09:27.790Z,1018.34
2018-12-18T01:10:36.460Z,1018.34
2018-12-18T01:11:45.131Z,1018.38
2018-12-18T01:12:53.869Z,1018.4
2018-12-18T01:14:02.534Z,1018.41
2018-12-18T01:15:11.204Z,1018.38
2018-12-18T01:16:19.876Z,1018.42
2018-12-18T01:17:28.547Z,1018.4
2018-12-18T01:18:37.478Z,1018.45
2018-12-18T01:19:46.151Z,1018.46
2018-12-18T01:20:54.815Z,1018.48
2018-12-18T01:22:03.490Z,1018.46
2018-12-18T01:23:12.156Z,1018.47
2018-12-18T01:24:20.826Z,1018.44
2018-12-18T01:25:29.495Z,1018.45
2018-12-18T01:26:38.227Z,1018.44
2018-12-18T01:27:46.904Z,1018.42
2018-12-18T01:28:55.571Z,1018.45
2018-12-18T01:30:04.242Z,1018.43
2018-12-18T01:31:12.913Z,1018.41
2018-12-18T01:32:21.650Z,1018.42
2018-12-18T01:33:30.313Z,1018.39
2018-12-18T01:34:38.984Z,1018.41
2018-12-18T01:35:47.709Z,1018.42
2018-12-18T01:36:56.395Z,1018.39
2018-12-18T01:38:05.062Z,1018.39
2018-12-18T01:39:13.737Z,1018.42
2018-12-18T01:40:22.403Z,1018.4
2018-12-18T01:41:31.073Z,1018.4
2018-12-18T01:42:39.787Z,1018.44
2018-12-18T01:43:48.710Z,1018.45
2018-12-18T01:44:57.373Z,1018.46
2018-12-18T01:46:06.037Z,1018.43
2018-12-18T01:47:14.710Z,1018.47
2018-12-18T01:48:23.381Z,1018.42
2018-12-18T01:49:32.055Z,1018.45
2018-12-18T01:50:41.062Z,1018.38
2018-12-18T01:51:49.737Z,1018.43
2018-12-18T01:52:58.407Z,1018.44
2018-12-18T01:54:07.075Z,1018.48
2018-12-18T01:55:15.736Z,1018.45
2018-12-18T01:56:24.410Z,1018.46
2018-12-18T01:57:33.082Z,1018.42
2018-12-18T01:58:42.008Z,1018.45
2018-12-18T01:59:50.682Z,1018.47
2018-12-18T02:00:59.359Z,1018.48
2018-12-18T02:02:08.027Z,1018.46
2018-12-18T02:03:16.696Z,1018.49
2018-12-18T02:04:25.380Z,1018.48
2018-12-18T02:05:34.317Z,1018.5
2018-12-18T02:06:42.980Z,1018.47
2018-12-18T02:07:51.658Z,1018.45
2018-12-18T02:09:00.328Z,1018.43
2018-12-18T02:10:09.019Z,1018.44
2018-12-18T02:11:17.704Z,1018.42
2018-12-18T02:12:26.380Z,1018.43
2018-12-18T02:13:35.042Z,1018.45
2018-12-18T02:14:43.979Z,1018.4
2018-12-18T02:15:52.644Z,1018.38
2018-12-18T02:17:01.317Z,1018.38
2018-12-18T02:18:09.980Z,1018.36
2018-12-18T02:19:18.653Z,1018.36
2018-12-18T02:20:27.328Z,1018.3
2018-12-18T02:21:36.002Z,1018.27
2018-12-18T02:22:44.681Z,1018.27
2018-12-18T02:23:53.401Z,1018.21
2018-12-18T02:25:02.073Z,1018.2
2018-12-18T02:26:10.796Z,1018.16
2018-12-18T02:27:19.472Z,1018.16
2018-12-18T02:28:28.131Z,1018.16
2018-12-18T02:29:37.061Z,1018.24
2018-12-18T02:30:45.724Z,1018.27
2018-12-18T02:31:54.401Z,1018.32
2018-12-18T02:33:03.333Z,1018.36
2018-12-18T02:34:13.834Z,1018.39
2018-12-18T02:35:22.677Z,1018.44
2018-12-18T02:36:31.361Z,1018.46
2018-12-18T02:37:40.038Z,1018.44
2018-12-18T02:38:48.717Z,1018.42
2018-12-18T02:39:57.386Z,1018.4
2018-12-18T02:41:06.059Z,1018.45
2018-12-18T02:42:14.994Z,1018.44
2018-12-18T02:43:23.929Z,1018.45
2018-12-18T02:44:32.641Z,1018.41
2018-12-18T02:45:41.364Z,1018.42
2018-12-18T02:46:50.038Z,1018.4
2018-12-18T02:47:58.705Z,1018.39
2018-12-18T02:49:07.382Z,1018.38
2018-12-18T02:50:16.041Z,1018.39
2018-12-18T02:51:24.723Z,1018.39
2018-12-18T02:52:33.409Z,1018.38
2018-12-18T02:53:42.081Z,1018.37
2018-12-18T02:54:51.000Z,1018.4
2018-12-18T02:55:59.674Z,1018.37
2018-12-18T02:57:08.614Z,1018.38
2018-12-18T02:58:17.293Z,1018.4
2018-12-18T02:59:25.983Z,1018.38
2018-12-18T03:00:34.658Z,1018.36
2018-12-18T03:01:43.346Z,1018.39
2018-12-18T03:02:52.027Z,1018.37
2018-12-18T03:04:00.707Z,1018.35
2018-12-18T03:05:09.373Z,1018.35
2018-12-18T03:06:18.083Z,1018.35
2018-12-18T03:07:27.043Z,1018.38
2018-12-18T03:08:35.824Z,1018.41
2018-12-18T03:09:44.792Z,1018.42
2018-12-18T03:10:53.478Z,1018.4
2018-12-18T03:12:02.402Z,1018.44
2018-12-18T03:13:11.102Z,1018.46
2018-12-18T03:14:19.770Z,1018.4
2018-12-18T03:15:28.445Z,1018.43
2018-12-18T03:16:37.368Z,1018.44
2018-12-18T03:17:46.043Z,1018.45
2018-12-18T03:18:54.739Z,1018.49
2018-12-18T03:20:03.429Z,1018.51
2018-12-18T03:21:12.373Z,1018.48
2018-12-18T03:22:21.040Z,1018.46
2018-12-18T03:23:29.713Z,1018.41
2018-12-18T03:24:38.388Z,1018.41
2018-12-18T03:25:47.062Z,1018.41
2018-12-18T03:26:55.989Z,1018.41
2018-12-18T03:28:04.663Z,1018.47
2018-12-18T03:29:13.327Z,1018.45
2018-12-18T03:30:22.036Z,1018.46
2018-12-18T03:31:30.760Z,1018.45
2018-12-18T03:32:40.254Z,1018.46
2018-12-18T03:33:49.231Z,1018.47
2018-12-18T03:34:57.902Z,1018.44
2018-12-18T03:36:06.606Z,1018.46
2018-12-18T03:37:15.275Z,1018.42
2018-12-18T03:38:23.948Z,1018.41
2018-12-18T03:39:32.876Z,1018.39
2018-12-18T03:40:41.547Z,1018.37
2018-12-18T03:41:50.217Z,1018.4
2018-12-18T03:42:59.151Z,1018.38
2018-12-18T03:44:08.070Z,1018.33
2018-12-18T03:45:17.014Z,1018.32
2018-12-18T03:46:25.678Z,1018.34
2018-12-18T03:47:34.351Z,1018.31
2018-12-18T03:48:43.016Z,1018.32
2018-12-18T03:49:51.693Z,1018.31
2018-12-18T03:51:00.367Z,1018.29
2018-12-18T03:52:09.045Z,1018.32
2018-12-18T03:53:17.730Z,1018.3
2018-12-18T03:54:26.652Z,1018.26
2018-12-18T03:55:35.328Z,1018.25
2018-12-18T03:56:44.012Z,1018.26
2018-12-18T03:57:52.960Z,1018.21
2018-12-18T03:59:01.877Z,1018.28
2018-12-18T04:00:10.549Z,1018.27
2018-12-18T04:01:19.230Z,1018.31
2018-12-18T04:02:28.410Z,1018.34
2018-12-18T04:03:37.105Z,1018.32
2018-12-18T04:04:46.027Z,1018.3
2018-12-18T04:05:54.953Z,1018.31
2018-12-18T04:07:03.640Z,1018.31
2018-12-18T04:08:12.319Z,1018.28
2018-12-18T04:09:20.986Z,1018.28
2018-12-18T04:10:29.703Z,1018.28
2018-12-18T04:11:38.577Z,1018.28
2018-12-18T04:12:47.244Z,1018.27
2018-12-18T04:13:55.916Z,1018.31
2018-12-18T04:15:04.855Z,1018.28
2018-12-18T04:16:13.789Z,1018.24
2018-12-18T04:17:22.460Z,1018.25
2018-12-18T04:18:31.153Z,1018.32
2018-12-18T04:19:39.831Z,1018.28
2018-12-18T04:20:48.499Z,1018.24
2018-12-18T04:21:57.182Z,1018.27
2018-12-18T04:23:06.177Z,1018.28
2018-12-18T04:24:15.121Z,1018.31
2018-12-18T04:25:23.798Z,1018.22
2018-12-18T04:26:32.480Z,1018.24
2018-12-18T04:27:41.165Z,1018.25
2018-12-18T04:28:49.849Z,1018.28
2018-12-18T04:29:58.525Z,1018.22
2018-12-18T04:31:07.462Z,1018.25
2018-12-18T04:32:16.135Z,1018.26
2018-12-18T04:33:24.820Z,1018.2
2018-12-18T04:34:33.501Z,1018.2
2018-12-18T04:35:49.615Z,1018.16
2018-12-18T04:36:58.306Z,1018.23
2018-12-18T04:38:06.997Z,1018.25
2018-12-18T04:39:15.694Z,1018.19
2018-12-18T04:40:24.379Z,1018.24
2018-12-18T04:41:33.042Z,1018.25
2018-12-18T04:42:41.713Z,1018.21
2018-12-18T04:43:50.395Z,1018.21
2018-12-18T04:44:59.082Z,1018.26
2018-12-18T04:46:07.773Z,1018.28
2018-12-18T04:47:16.452Z,1018.27
2018-12-18T04:48:25.162Z,1018.27
2018-12-18T04:49:34.077Z,1018.29
2018-12-18T04:50:42.759Z,1018.28
2018-12-18T04:51:51.434Z,1018.29
2018-12-18T04:53:00.389Z,1018.25
2018-12-18T04:54:09.052Z,1018.29
2018-12-18T04:55:17.827Z,1018.3
2018-12-18T04:56:26.592Z,1018.31
2018-12-18T04:57:35.266Z,1018.3
2018-12-18T04:58:43.929Z,1018.31
2018-12-18T04:59:52.612Z,1018.38
2018-12-18T05:01:01.550Z,1018.36
2018-12-18T05:02:10.468Z,1018.36
2018-12-18T05:03:19.131Z,1018.38
2018-12-18T05:04:28.071Z,1018.35
2018-12-18T05:05:36.754Z,1018.39
2018-12-18T05:06:45.434Z,1018.38
2018-12-18T05:07:54.109Z,1018.37
2018-12-18T05:09:02.775Z,1018.38
2018-12-18T05:10:11.449Z,1018.34
2018-12-18T05:11:20.116Z,1018.4
2018-12-18T05:12:28.793Z,1018.38
2018-12-18T05:13:37.462Z,1018.42
2018-12-18T05:14:46.133Z,1018.39
2018-12-18T05:15:54.794Z,1018.36
2018-12-18T05:17:03.477Z,1018.39
2018-12-18T05:18:12.152Z,1018.41
2018-12-18T05:19:20.831Z,1018.44
2018-12-18T05:20:29.497Z,1018.42
2018-12-18T05:21:38.432Z,1018.41
2018-12-18T05:22:47.102Z,1018.44
2018-12-18T05:23:55.764Z,1018.39
2018-12-18T05:25:04.429Z,1018.42
2018-12-18T05:26:13.095Z,1018.44
2018-12-18T05:27:22.031Z,1018.44
2018-12-18T05:28:30.697Z,1018.48
2018-12-18T05:29:39.373Z,1018.4
2018-12-18T05:30:48.030Z,1018.39
2018-12-18T05:31:56.717Z,1018.36
2018-12-18T05:33:05.405Z,1018.36
2018-12-18T05:34:14.089Z,1018.39
2018-12-18T05:35:22.822Z,1018.38
2018-12-18T05:36:31.500Z,1018.36
2018-12-18T05:37:40.166Z,1018.33
2018-12-18T05:38:48.848Z,1018.31
2018-12-18T05:39:57.508Z,1018.34
2018-12-18T05:41:06.186Z,1018.37
2018-12-18T05:42:15.114Z,1018.37
2018-12-18T05:43:23.786Z,1018.35
2018-12-18T05:44:33.373Z,1018.35
2018-12-18T05:45:42.036Z,1018.38
2018-12-18T05:46:50.716Z,1018.38
2018-12-18T05:47:59.374Z,1018.37
2018-12-18T05:49:08.059Z,1018.4
2018-12-18T05:50:16.729Z,1018.37
2018-12-18T05:51:25.403Z,1018.39
2018-12-18T05:52:34.065Z,1018.4
2018-12-18T05:53:42.743Z,1018.42
2018-12-18T05:54:51.411Z,1018.4
2018-12-18T05:56:00.082Z,1018.35
2018-12-18T05:57:08.757Z,1018.38
2018-12-18T05:58:17.435Z,1018.35
2018-12-18T05:59:26.104Z,1018.37
2018-12-18T06:00:34.777Z,1018.4
2018-12-18T06:01:43.441Z,1018.38
2018-12-18T06:02:52.365Z,1018.4
2018-12-18T06:04:01.317Z,1018.39
2018-12-18T06:05:09.989Z,1018.39
2018-12-18T06:06:18.662Z,1018.42
2018-12-18T06:07:27.323Z,1018.46
2018-12-18T06:08:36.001Z,1018.5
2018-12-18T06:09:45.577Z,1018.48
2018-12-18T06:10:54.500Z,1018.51
2018-12-18T06:12:03.164Z,1018.48
2018-12-18T06:13:11.837Z,1018.5
2018-12-18T06:14:20.759Z,1018.48
2018-12-18T06:15:29.960Z,1018.46
2018-12-18T06:16:38.638Z,1018.5
2018-12-18T06:17:47.310Z,1018.56
2018-12-18T06:18:56.507Z,1018.52
2018-12-18T06:20:05.177Z,1018.58
2018-12-18T06:21:13.849Z,1018.53
2018-12-18T06:22:22.512Z,1018.56
2018-12-18T06:23:31.181Z,1018.53
2018-12-18T06:24:39.851Z,1018.57
2018-12-18T06:25:48.799Z,1018.52
2018-12-18T06:26:57.472Z,1018.55
2018-12-18T06:28:06.143Z,1018.58
2018-12-18T06:29:14.820Z,1018.53
2018-12-18T06:30:23.498Z,1018.56
2018-12-18T06:31:32.222Z,1018.59
2018-12-18T06:32:40.889Z,1018.54
2018-12-18T06:33:49.555Z,1018.54
2018-12-18T06:34:58.262Z,1018.52
2018-12-18T06:36:12.979Z,1018.54
2018-12-18T06:37:21.649Z,1018.52
2018-12-18T06:38:30.306Z,1018.53
2018-12-18T06:39:38.975Z,1018.53
2018-12-18T06:40:47.656Z,1018.58
2018-12-18T06:41:56.325Z,1018.56
2018-12-18T06:43:04.996Z,1018.55
2018-12-18T06:44:13.671Z,1018.54
2018-12-18T06:45:22.343Z,1018.57
2018-12-18T06:46:31.016Z,1018.55
2018-12-18T06:47:39.680Z,1018.54
2018-12-18T06:48:48.396Z,1018.52
2018-12-18T06:49:57.068Z,1018.51
2018-12-18T06:51:05.833Z,1018.46
2018-12-18T06:52:14.505Z,1018.48
2018-12-18T06:53:23.169Z,1018.52
2018-12-18T06:54:32.110Z,1018.57
2018-12-18T06:55:40.782Z,1018.6
2018-12-18T06:56:49.459Z,1018.65
2018-12-18T06:57:58.126Z,1018.63
2018-12-18T06:59:06.788Z,1018.6
2018-12-18T07:00:15.464Z,1018.64
2018-12-18T07:01:24.133Z,1018.68
2018-12-18T07:02:32.814Z,1018.7
2018-12-18T07:03:41.487Z,1018.73
2018-12-18T07:04:50.169Z,1018.73
2018-12-18T07:05:58.831Z,1018.66
2018-12-18T07:07:07.506Z,1018.72
2018-12-18T07:08:16.170Z,1018.71
2018-12-18T07:09:24.844Z,1018.73
2018-12-18T07:10:33.514Z,1018.72
2018-12-18T07:11:42.193Z,1018.72
2018-12-18T07:12:50.890Z,1018.7
2018-12-18T07:13:59.812Z,1018.67
2018-12-18T07:15:08.483Z,1018.67
2018-12-18T07:16:17.153Z,1018.68
2018-12-18T07:17:25.838Z,1018.64
2018-12-18T07:18:34.505Z,1018.66
2018-12-18T07:19:43.180Z,1018.65
2018-12-18T07:20:51.838Z,1018.66
2018-12-18T07:22:00.514Z,1018.63
2018-12-18T07:23:09.181Z,1018.64
2018-12-18T07:24:17.856Z,1018.64
2018-12-18T07:25:26.521Z,1018.63
2018-12-18T07:26:35.205Z,1018.65
2018-12-18T07:27:44.140Z,1018.62
2018-12-18T07:28:52.815Z,1018.6
2018-12-18T07:30:01.482Z,1018.59
2018-12-18T07:31:10.170Z,1018.64
2018-12-18T07:32:19.110Z,1018.65
2018-12-18T07:33:27.784Z,1018.64
2018-12-18T07:34:36.459Z,1018.7
2018-12-18T07:35:45.133Z,1018.71
2018-12-18T07:36:53.803Z,1018.63
2018-12-18T07:38:02.730Z,1018.65
2018-12-18T07:39:11.412Z,1018.65
2018-12-18T07:40:20.078Z,1018.65
2018-12-18T07:41:28.757Z,1018.66
2018-12-18T07:42:37.426Z,1018.67
2018-12-18T07:43:46.108Z,1018.67
2018-12-18T07:44:54.768Z,1018.71
2018-12-18T07:46:03.464Z,1018.67
2018-12-18T07:47:12.382Z,1018.66
2018-12-18T07:48:21.063Z,1018.64
2018-12-18T07:49:29.732Z,1018.61
2018-12-18T07:50:38.402Z,1018.61
2018-12-18T07:51:47.064Z,1018.56
2018-12-18T07:52:55.731Z,1018.54
2018-12-18T07:54:04.418Z,1018.52
2018-12-18T07:55:13.082Z,1018.47
2018-12-18T07:56:21.749Z,1018.45
2018-12-18T07:57:30.421Z,1018.4
2018-12-18T07:58:39.085Z,1018.36
2018-12-18T07:59:47.770Z,1018.31
2018-12-18T08:00:56.433Z,1018.3
2018-12-18T08:02:05.109Z,1018.22
2018-12-18T08:03:13.769Z,1018.21
2018-12-18T08:04:22.447Z,1018.2
2018-12-18T08:05:31.120Z,1018.11
2018-12-18T08:06:39.808Z,1018.1
2018-12-18T08:07:48.732Z,1018.08
2018-12-18T08:08:57.401Z,1018.09
2018-12-18T08:10:06.071Z,1018.06
2018-12-18T08:11:14.744Z,1018.06
2018-12-18T08:12:23.432Z,1018.07
2018-12-18T08:13:32.105Z,1018.06
2018-12-18T08:14:40.785Z,1018.08
2018-12-18T08:15:49.445Z,1018.07
2018-12-18T08:16:58.403Z,1018.1
2018-12-18T08:18:07.081Z,1018.05
2018-12-18T08:19:15.776Z,1018.08
2018-12-18T08:20:24.442Z,1018.12
2018-12-18T08:21:33.124Z,1018.09
2018-12-18T08:22:41.811Z,1018.05
2018-12-18T08:23:51.003Z,1018.02
2018-12-18T08:24:59.659Z,1018
2018-12-18T08:26:08.852Z,1017.96
2018-12-18T08:27:17.527Z,1017.9
2018-12-18T08:28:26.200Z,1017.95
2018-12-18T08:29:34.874Z,1017.94
2018-12-18T08:30:43.790Z,1017.93
2018-12-18T08:31:52.460Z,1017.93
2018-12-18T08:33:01.128Z,1017.92
2018-12-18T08:34:10.072Z,1017.93
2018-12-18T08:35:18.737Z,1017.94
2018-12-18T08:36:27.417Z,1017.95
2018-12-18T08:37:36.080Z,1017.91
2018-12-18T08:38:45.913Z,1017.91
2018-12-18T08:39:54.570Z,1017.89
2018-12-18T08:41:03.243Z,1017.89
2018-12-18T08:42:11.910Z,1017.9
2018-12-18T08:43:20.592Z,1017.89
2018-12-18T08:44:29.266Z,1017.86
2018-12-18T08:45:37.936Z,1017.89
2018-12-18T08:46:46.871Z,1017.9
2018-12-18T08:47:55.551Z,1017.87
2018-12-18T08:49:04.233Z,1017.87
2018-12-18T08:50:12.929Z,1017.86
2018-12-18T08:51:21.620Z,1017.88
2018-12-18T08:52:30.279Z,1017.9
2018-12-18T08:53:38.967Z,1017.88
2018-12-18T08:54:47.634Z,1017.87
2018-12-18T08:55:56.308Z,1017.87
2018-12-18T08:57:05.234Z,1017.86
2018-12-18T08:58:13.905Z,1017.84
2018-12-18T08:59:22.588Z,1017.87
2018-12-18T09:00:31.266Z,1017.89
2018-12-18T09:01:39.933Z,1017.92
2018-12-18T09:02:48.603Z,1017.91
2018-12-18T09:03:57.331Z,1017.92
2018-12-18T09:05:06.002Z,1017.92
2018-12-18T09:06:14.946Z,1017.89
2018-12-18T09:07:23.931Z,1017.92
2018-12-18T09:08:32.862Z,1017.91
2018-12-18T09:09:42.052Z,1017.92
2018-12-18T09:10:50.731Z,1017.92
2018-12-18T09:11:59.396Z,1017.9
2018-12-18T09:13:08.070Z,1017.92
2018-12-18T09:14:17.004Z,1017.91
2018-12-18T09:15:25.703Z,1017.9
2018-12-18T09:16:34.407Z,1017.87
2018-12-18T09:17:43.073Z,1017.85
2018-12-18T09:18:51.753Z,1017.81
2018-12-18T09:20:00.429Z,1017.77
2018-12-18T09:21:09.346Z,1017.79
2018-12-18T09:22:18.041Z,1017.77
2018-12-18T09:23:26.707Z,1017.71
2018-12-18T09:24:35.375Z,1017.75
2018-12-18T09:25:44.054Z,1017.72
2018-12-18T09:26:52.734Z,1017.74
2018-12-18T09:28:01.412Z,1017.73
2018-12-18T09:29:10.087Z,1017.69
2018-12-18T09:30:18.769Z,1017.65
2018-12-18T09:31:27.438Z,1017.62
2018-12-18T09:32:36.114Z,1017.59
2018-12-18T09:33:44.783Z,1017.59
2018-12-18T09:34:53.458Z,1017.58
2018-12-18T09:36:02.126Z,1017.6
2018-12-18T09:37:10.795Z,1017.59
2018-12-18T09:38:19.457Z,1017.54
2018-12-18T09:39:28.131Z,1017.49
2018-12-18T09:40:36.798Z,1017.46
2018-12-18T09:41:45.474Z,1017.43
2018-12-18T09:42:54.149Z,1017.44
2018-12-18T09:44:02.826Z,1017.43
2018-12-18T09:45:11.498Z,1017.4
2018-12-18T09:46:20.164Z,1017.38
2018-12-18T09:47:28.836Z,1017.4
2018-12-18T09:48:37.501Z,1017.45
2018-12-18T09:49:46.180Z,1017.39
2018-12-18T09:50:54.856Z,1017.37
2018-12-18T09:52:03.610Z,1017.38
2018-12-18T09:53:12.265Z,1017.4
2018-12-18T09:54:20.935Z,1017.44
2018-12-18T09:55:29.852Z,1017.41
2018-12-18T09:56:38.535Z,1017.41
2018-12-18T09:57:47.478Z,1017.41
2018-12-18T09:58:56.146Z,1017.43
2018-12-18T10:00:05.073Z,1017.41
2018-12-18T10:01:13.743Z,1017.43
2018-12-18T10:02:22.421Z,1017.4
2018-12-18T10:03:33.583Z,1017.37
2018-12-18T10:04:42.402Z,1017.32
2018-12-18T10:05:56.212Z,1017.31
2018-12-18T10:07:05.653Z,1017.28
2018-12-18T10:08:14.317Z,1017.29
2018-12-18T10:09:22.988Z,1017.22
2018-12-18T10:10:31.647Z,1017.16
2018-12-18T10:11:40.582Z,1017.15
2018-12-18T10:12:49.259Z,1017.11
2018-12-18T10:13:57.945Z,1017.1
2018-12-18T10:15:06.607Z,1017.13
2018-12-18T10:16:15.283Z,1017.11
2018-12-18T10:17:24.214Z,1017.07
2018-12-18T10:18:32.882Z,1017.09
2018-12-18T10:19:41.559Z,1017.09
2018-12-18T10:20:50.229Z,1017.03
2018-12-18T10:21:58.900Z,1017.03
2018-12-18T10:23:07.843Z,1016.97
2018-12-18T10:24:16.783Z,1016.94
2018-12-18T10:25:25.451Z,1016.9
2018-12-18T10:26:34.127Z,1016.92
2018-12-18T10:27:42.794Z,1016.93
2018-12-18T10:28:51.476Z,1016.94
2018-12-18T10:30:00.140Z,1016.93
2018-12-18T10:31:09.073Z,1016.93
2018-12-18T10:32:17.737Z,1016.94
2018-12-18T10:33:26.678Z,1016.91
2018-12-18T10:34:35.346Z,1016.86
2018-12-18T10:35:44.013Z,1016.85
2018-12-18T10:36:52.687Z,1016.83
2018-12-18T10:38:01.613Z,1016.84
2018-12-18T10:39:10.299Z,1016.83
2018-12-18T10:40:18.959Z,1016.83
2018-12-18T10:41:27.635Z,1016.88
2018-12-18T10:42:36.556Z,1016.86
2018-12-18T10:43:45.233Z,1016.88
2018-12-18T10:44:53.900Z,1016.85
2018-12-18T10:46:02.581Z,1016.86
2018-12-18T10:47:11.500Z,1016.82
2018-12-18T10:48:20.185Z,1016.85
2018-12-18T10:49:28.858Z,1016.81
2018-12-18T10:50:37.839Z,1016.81
2018-12-18T10:51:46.506Z,1016.81
2018-12-18T10:52:55.185Z,1016.77
2018-12-18T10:54:03.859Z,1016.77
2018-12-18T10:55:12.794Z,1016.79
2018-12-18T10:56:21.492Z,1016.72
2018-12-18T10:57:30.171Z,1016.68
2018-12-18T10:58:38.843Z,1016.65
2018-12-18T10:59:47.765Z,1016.65
2018-12-18T11:00:56.496Z,1016.64
2018-12-18T11:02:05.167Z,1016.64
2018-12-18T11:03:13.833Z,1016.62
2018-12-18T11:04:22.508Z,1016.62
2018-12-18T11:05:31.438Z,1016.59
2018-12-18T11:06:40.358Z,1016.6
2018-12-18T11:07:49.028Z,1016.57
2018-12-18T11:08:57.704Z,1016.59
2018-12-18T11:10:06.386Z,1016.61
2018-12-18T11:11:15.054Z,1016.58
2018-12-18T11:12:23.731Z,1016.56
2018-12-18T11:13:32.401Z,1016.46
2018-12-18T11:14:41.468Z,1016.43
2018-12-18T11:15:50.149Z,1016.42
2018-12-18T11:16:59.078Z,1016.39
2018-12-18T11:18:08.006Z,1016.4
2018-12-18T11:19:16.673Z,1016.39
2018-12-18T11:20:25.346Z,1016.34
2018-12-18T11:21:34.025Z,1016.33
2018-12-18T11:22:42.701Z,1016.28
2018-12-18T11:23:51.369Z,1016.25
2018-12-18T11:25:00.053Z,1016.22
2018-12-18T11:26:08.719Z,1016.2
2018-12-18T11:27:17.647Z,1016.16
2018-12-18T11:28:26.310Z,1016.06
2018-12-18T11:29:34.990Z,1016.02
2018-12-18T11:30:43.670Z,1016.02
2018-12-18T11:31:52.341Z,1015.97
2018-12-18T11:33:01.014Z,1015.97
2018-12-18T11:34:09.753Z,1015.97
2018-12-18T11:35:18.425Z,1015.93
2018-12-18T11:36:27.408Z,1015.91
2018-12-18T11:37:36.087Z,1015.89
2018-12-18T11:38:44.762Z,1015.84
2018-12-18T11:39:53.436Z,1015.87
2018-12-18T11:41:02.125Z,1015.82
2018-12-18T11:42:11.109Z,1015.78
2018-12-18T11:43:20.034Z,1015.75
2018-12-18T11:44:28.712Z,1015.74
2018-12-18T11:45:37.385Z,1015.7
2018-12-18T11:46:46.058Z,1015.68
2018-12-18T11:47:54.724Z,1015.69
2018-12-18T11:49:03.394Z,1015.71
2018-12-18T11:50:12.066Z,1015.71
2018-12-18T11:51:20.735Z,1015.68
2018-12-18T11:52:29.400Z,1015.62
2018-12-18T11:53:38.074Z,1015.61
2018-12-18T11:54:46.748Z,1015.61
2018-12-18T11:55:55.433Z,1015.58
2018-12-18T11:57:04.242Z,1015.54
2018-12-18T11:58:12.915Z,1015.54
2018-12-18T11:59:21.591Z,1015.46
2018-12-18T12:00:30.272Z,1015.58
2018-12-18T12:01:39.191Z,1015.46
2018-12-18T12:02:48.096Z,1015.45
2018-12-18T12:03:56.798Z,1015.44
2018-12-18T12:05:05.757Z,1015.45
2018-12-18T12:06:14.729Z,1015.43
2018-12-18T12:07:29.859Z,1015.43
2018-12-18T12:08:38.506Z,1015.43
2018-12-18T12:09:47.162Z,1015.43
2018-12-18T12:10:55.926Z,1015.38
2018-12-18T12:12:04.681Z,1015.4
2018-12-18T12:13:13.585Z,1015.38
2018-12-18T12:14:22.236Z,1015.37
2018-12-18T12:15:30.885Z,1015.34
2018-12-18T12:16:40.148Z,1015.31
2018-12-18T12:17:48.791Z,1015.33
2018-12-18T12:18:57.436Z,1015.33
2018-12-18T12:20:06.259Z,1015.36
2018-12-18T12:21:15.012Z,1015.28
2018-12-18T12:22:23.676Z,1015.32
2018-12-18T12:23:32.334Z,1015.31
2018-12-18T12:24:42.560Z,1015.26
2018-12-18T12:25:51.578Z,1015.29
2018-12-18T12:27:00.568Z,1015.29
2018-12-18T12:28:09.231Z,1015.26
2018-12-18T12:29:18.128Z,1015.26
2018-12-18T12:30:26.780Z,1015.25
2018-12-18T12:31:35.435Z,1015.2
2018-12-18T12:32:44.895Z,1015.22
2018-12-18T12:33:53.553Z,1015.26
2018-12-18T12:35:02.205Z,1015.25
2018-12-18T12:36:10.851Z,1015.28
2018-12-18T12:37:19.530Z,1015.28
2018-12-18T12:38:28.177Z,1015.27
2018-12-18T12:39:36.833Z,1015.21
2018-12-18T12:40:45.483Z,1015.2
2018-12-18T12:41:54.133Z,1015.19
2018-12-18T12:43:02.785Z,1015.14
2018-12-18T12:44:11.436Z,1015.14
2018-12-18T12:45:20.090Z,1015.12
2018-12-18T12:46:28.736Z,1015.14
2018-12-18T12:47:37.635Z,1015.11
2018-12-18T12:48:46.284Z,1015.14
2018-12-18T12:49:54.944Z,1015.16
2018-12-18T12:51:03.592Z,1015.11
2018-12-18T12:52:12.241Z,1015.1
2018-12-18T12:53:21.146Z,1015.08
2018-12-18T12:54:29.798Z,1015.08
2018-12-18T12:55:38.446Z,1015.05
2018-12-18T12:56:47.096Z,1015.06
2018-12-18T12:57:55.747Z,1015.07
2018-12-18T12:59:04.399Z,1015.01
2018-12-18T13:00:13.054Z,1014.99
2018-12-18T13:01:22.036Z,1014.96
2018-12-18T13:02:30.954Z,1014.91
2018-12-18T13:03:39.613Z,1014.92
2018-12-18T13:04:48.277Z,1014.94
2018-12-18T13:05:56.933Z,1014.92
2018-12-18T13:07:05.587Z,1014.95
2018-12-18T13:08:14.240Z,1014.98
2018-12-18T13:09:22.891Z,1014.99
2018-12-18T13:10:31.553Z,1014.98
2018-12-18T13:11:40.201Z,1014.99
2018-12-18T13:12:48.864Z,1014.94
2018-12-18T13:13:57.774Z,1014.91
2018-12-18T13:15:06.431Z,1014.9
2018-12-18T13:16:15.351Z,1014.85
2018-12-18T13:17:24.005Z,1014.93
2018-12-18T13:18:32.666Z,1014.91
2018-12-18T13:19:41.320Z,1014.92
2018-12-18T13:20:49.977Z,1014.9
2018-12-18T13:21:58.633Z,1014.88
2018-12-18T13:23:07.300Z,1014.84
2018-12-18T13:24:15.959Z,1014.8
2018-12-18T13:25:24.628Z,1014.83
2018-12-18T13:26:33.297Z,1014.8
2018-12-18T13:27:41.947Z,1014.77
2018-12-18T13:28:50.595Z,1014.77
2018-12-18T13:29:59.245Z,1014.74
2018-12-18T13:31:07.951Z,1014.69
2018-12-18T13:32:16.606Z,1014.69
2018-12-18T13:33:25.264Z,1014.67
2018-12-18T13:34:33.924Z,1014.65
2018-12-18T13:35:42.578Z,1014.62
2018-12-18T13:36:51.225Z,1014.59
2018-12-18T13:37:59.883Z,1014.6
2018-12-18T13:39:08.594Z,1014.58
2018-12-18T13:40:17.241Z,1014.52
2018-12-18T13:41:25.902Z,1014.55
2018-12-18T13:42:34.562Z,1014.51
2018-12-18T13:43:43.218Z,1014.52
2018-12-18T13:44:51.872Z,1014.49
2018-12-18T13:46:00.592Z,1014.46
2018-12-18T13:47:15.351Z,1014.43
2018-12-18T13:48:29.497Z,1014.42
2018-12-18T13:49:38.243Z,1014.37
2018-12-18T13:50:46.900Z,1014.33
2018-12-18T13:51:55.563Z,1014.32
2018-12-18T13:53:04.460Z,1014.33
2018-12-18T13:54:13.616Z,1014.32